sensor_id;sensor_type;location;lat;lon;timestamp;temperature;humidity
10123;DHT22;5101;49.038;8.710;2022-07-23T00:00:10;24.40;90.10
10123;DHT22;5101;49.038;8.710;2022-07-23T00:02:36;24.40;90.10
10123;DHT22;5101;49.038;8.710;2022-07-23T00:05:02;24.30;90.10
10123;DHT22;5101;49.038;8.710;2022-07-23T00:07:28;24.30;90.10
10123;DHT22;5101;49.038;8.710;2022-07-23T00:09:54;24.30;90.20
10123;DHT22;5101;49.038;8.710;2022-07-23T00:12:20;24.30;90.20
10123;DHT22;5101;49.038;8.710;2022-07-23T00:14:45;24.30;90.30
10123;DHT22;5101;49.038;8.710;2022-07-23T00:17:11;24.30;90.40
10123;DHT22;5101;49.038;8.710;2022-07-23T00:19:36;24.30;90.50
10123;DHT22;5101;49.038;8.710;2022-07-23T00:22:02;24.30;90.40
10123;DHT22;5101;49.038;8.710;2022-07-23T00:24:27;24.30;90.30
10123;DHT22;5101;49.038;8.710;2022-07-23T00:26:53;24.30;90.30
10123;DHT22;5101;49.038;8.710;2022-07-23T00:29:19;24.30;90.40
10123;DHT22;5101;49.038;8.710;2022-07-23T00:31:44;24.20;90.40
10123;DHT22;5101;49.038;8.710;2022-07-23T00:34:10;24.20;90.50
10123;DHT22;5101;49.038;8.710;2022-07-23T00:36:35;24.20;90.50
10123;DHT22;5101;49.038;8.710;2022-07-23T00:39:01;24.20;90.60
10123;DHT22;5101;49.038;8.710;2022-07-23T00:41:26;24.10;90.80
10123;DHT22;5101;49.038;8.710;2022-07-23T00:43:52;24.10;91.00
10123;DHT22;5101;49.038;8.710;2022-07-23T00:46:21;24.10;91.30
10123;DHT22;5101;49.038;8.710;2022-07-23T00:48:48;24.00;91.50
10123;DHT22;5101;49.038;8.710;2022-07-23T00:51:15;24.00;91.70
10123;DHT22;5101;49.038;8.710;2022-07-23T00:53:42;23.90;92.00
10123;DHT22;5101;49.038;8.710;2022-07-23T00:56:08;23.90;92.00
10123;DHT22;5101;49.038;8.710;2022-07-23T00:58:35;23.80;91.80
10123;DHT22;5101;49.038;8.710;2022-07-23T01:01:01;23.80;91.70
10123;DHT22;5101;49.038;8.710;2022-07-23T01:03:26;23.80;91.70
10123;DHT22;5101;49.038;8.710;2022-07-23T01:05:53;23.70;91.50
10123;DHT22;5101;49.038;8.710;2022-07-23T01:08:19;23.70;91.50
10123;DHT22;5101;49.038;8.710;2022-07-23T01:10:46;23.70;91.60
10123;DHT22;5101;49.038;8.710;2022-07-23T01:13:12;23.70;91.50
10123;DHT22;5101;49.038;8.710;2022-07-23T01:15:38;23.70;91.30
10123;DHT22;5101;49.038;8.710;2022-07-23T01:18:06;23.70;91.20
10123;DHT22;5101;49.038;8.710;2022-07-23T01:20:32;23.70;91.10
10123;DHT22;5101;49.038;8.710;2022-07-23T01:22:58;23.70;91.00
10123;DHT22;5101;49.038;8.710;2022-07-23T01:25:24;23.60;90.80
10123;DHT22;5101;49.038;8.710;2022-07-23T01:27:52;23.60;90.80
10123;DHT22;5101;49.038;8.710;2022-07-23T01:30:18;23.60;90.70
10123;DHT22;5101;49.038;8.710;2022-07-23T01:32:43;23.60;90.60
10123;DHT22;5101;49.038;8.710;2022-07-23T01:35:11;23.60;90.50
10123;DHT22;5101;49.038;8.710;2022-07-23T01:37:37;23.60;90.20
10123;DHT22;5101;49.038;8.710;2022-07-23T01:40:04;23.60;90.00
10123;DHT22;5101;49.038;8.710;2022-07-23T01:42:30;23.60;89.70
10123;DHT22;5101;49.038;8.710;2022-07-23T01:44:56;23.60;89.50
10123;DHT22;5101;49.038;8.710;2022-07-23T01:47:21;23.60;89.40
10123;DHT22;5101;49.038;8.710;2022-07-23T01:49:47;23.60;89.20
10123;DHT22;5101;49.038;8.710;2022-07-23T01:52:12;23.60;88.90
10123;DHT22;5101;49.038;8.710;2022-07-23T01:54:39;23.60;88.80
10123;DHT22;5101;49.038;8.710;2022-07-23T01:57:05;23.60;88.70
10123;DHT22;5101;49.038;8.710;2022-07-23T01:59:31;23.50;88.30
10123;DHT22;5101;49.038;8.710;2022-07-23T02:01:57;23.50;88.40
10123;DHT22;5101;49.038;8.710;2022-07-23T02:04:24;23.50;88.60
10123;DHT22;5101;49.038;8.710;2022-07-23T02:06:50;23.50;88.90
10123;DHT22;5101;49.038;8.710;2022-07-23T02:09:16;23.50;89.10
10123;DHT22;5101;49.038;8.710;2022-07-23T02:11:42;23.50;88.90
10123;DHT22;5101;49.038;8.710;2022-07-23T02:14:08;23.50;89.10
10123;DHT22;5101;49.038;8.710;2022-07-23T02:16:34;23.50;89.30
10123;DHT22;5101;49.038;8.710;2022-07-23T02:19:00;23.50;89.70
10123;DHT22;5101;49.038;8.710;2022-07-23T02:21:26;23.40;90.00
10123;DHT22;5101;49.038;8.710;2022-07-23T02:23:51;23.40;90.10
10123;DHT22;5101;49.038;8.710;2022-07-23T02:26:17;23.40;90.20
10123;DHT22;5101;49.038;8.710;2022-07-23T02:28:43;23.30;90.30
10123;DHT22;5101;49.038;8.710;2022-07-23T02:31:08;23.40;90.50
10123;DHT22;5101;49.038;8.710;2022-07-23T02:33:34;23.30;90.60
10123;DHT22;5101;49.038;8.710;2022-07-23T02:35:59;23.30;90.70
10123;DHT22;5101;49.038;8.710;2022-07-23T02:38:25;23.20;90.70
10123;DHT22;5101;49.038;8.710;2022-07-23T02:40:51;23.30;91.20
10123;DHT22;5101;49.038;8.710;2022-07-23T02:43:17;23.20;90.80
10123;DHT22;5101;49.038;8.710;2022-07-23T02:45:42;23.20;90.80
10123;DHT22;5101;49.038;8.710;2022-07-23T02:48:08;23.20;90.70
10123;DHT22;5101;49.038;8.710;2022-07-23T02:50:34;23.10;90.80
10123;DHT22;5101;49.038;8.710;2022-07-23T02:52:59;23.00;90.90
10123;DHT22;5101;49.038;8.710;2022-07-23T02:55:25;23.10;91.00
10123;DHT22;5101;49.038;8.710;2022-07-23T02:57:51;23.00;91.10
10123;DHT22;5101;49.038;8.710;2022-07-23T03:00:16;23.00;91.30
10123;DHT22;5101;49.038;8.710;2022-07-23T03:02:42;23.00;91.20
10123;DHT22;5101;49.038;8.710;2022-07-23T03:05:08;23.00;91.20
10123;DHT22;5101;49.038;8.710;2022-07-23T03:07:34;22.90;91.30
10123;DHT22;5101;49.038;8.710;2022-07-23T03:09:59;22.90;91.50
10123;DHT22;5101;49.038;8.710;2022-07-23T03:12:25;22.90;91.70
10123;DHT22;5101;49.038;8.710;2022-07-23T03:14:50;22.90;92.00
10123;DHT22;5101;49.038;8.710;2022-07-23T03:17:16;22.90;92.20
10123;DHT22;5101;49.038;8.710;2022-07-23T03:19:42;22.90;92.30
10123;DHT22;5101;49.038;8.710;2022-07-23T03:22:07;22.80;92.20
10123;DHT22;5101;49.038;8.710;2022-07-23T03:24:33;22.80;92.30
10123;DHT22;5101;49.038;8.710;2022-07-23T03:27:17;22.80;92.40
10123;DHT22;5101;49.038;8.710;2022-07-23T03:29:43;22.80;92.40
10123;DHT22;5101;49.038;8.710;2022-07-23T03:32:08;22.70;92.50
10123;DHT22;5101;49.038;8.710;2022-07-23T03:34:35;22.70;92.60
10123;DHT22;5101;49.038;8.710;2022-07-23T03:37:00;22.80;92.80
10123;DHT22;5101;49.038;8.710;2022-07-23T03:39:26;22.70;92.90
10123;DHT22;5101;49.038;8.710;2022-07-23T03:41:51;22.70;93.00
10123;DHT22;5101;49.038;8.710;2022-07-23T03:44:17;22.70;92.90
10123;DHT22;5101;49.038;8.710;2022-07-23T03:46:42;22.70;93.10
10123;DHT22;5101;49.038;8.710;2022-07-23T03:49:08;22.70;93.20
10123;DHT22;5101;49.038;8.710;2022-07-23T03:51:33;22.70;93.20
10123;DHT22;5101;49.038;8.710;2022-07-23T03:53:59;22.70;93.40
10123;DHT22;5101;49.038;8.710;2022-07-23T03:56:24;22.60;93.50
10123;DHT22;5101;49.038;8.710;2022-07-23T03:58:51;22.60;93.50
10123;DHT22;5101;49.038;8.710;2022-07-23T04:01:16;22.60;93.80
10123;DHT22;5101;49.038;8.710;2022-07-23T04:03:42;22.60;94.20
10123;DHT22;5101;49.038;8.710;2022-07-23T04:06:07;22.60;94.20
10123;DHT22;5101;49.038;8.710;2022-07-23T04:08:33;22.50;94.10
10123;DHT22;5101;49.038;8.710;2022-07-23T04:10:58;22.50;94.00
10123;DHT22;5101;49.038;8.710;2022-07-23T04:13:24;22.50;94.00
10123;DHT22;5101;49.038;8.710;2022-07-23T04:15:49;22.40;94.00
10123;DHT22;5101;49.038;8.710;2022-07-23T04:18:16;22.40;94.20
10123;DHT22;5101;49.038;8.710;2022-07-23T04:20:47;22.40;94.20
10123;DHT22;5101;49.038;8.710;2022-07-23T04:23:12;22.40;94.20
10123;DHT22;5101;49.038;8.710;2022-07-23T04:25:38;22.40;94.10
10123;DHT22;5101;49.038;8.710;2022-07-23T04:28:04;22.40;94.30
10123;DHT22;5101;49.038;8.710;2022-07-23T04:30:29;22.30;94.40
10123;DHT22;5101;49.038;8.710;2022-07-23T04:32:55;22.30;94.40
10123;DHT22;5101;49.038;8.710;2022-07-23T04:35:20;22.30;94.30
10123;DHT22;5101;49.038;8.710;2022-07-23T04:37:46;22.30;94.40
10123;DHT22;5101;49.038;8.710;2022-07-23T04:40:12;22.30;94.30
10123;DHT22;5101;49.038;8.710;2022-07-23T04:42:38;22.30;94.00
10123;DHT22;5101;49.038;8.710;2022-07-23T04:45:04;22.20;94.00
10123;DHT22;5101;49.038;8.710;2022-07-23T04:47:30;22.30;94.20
10123;DHT22;5101;49.038;8.710;2022-07-23T04:49:56;22.30;94.10
10123;DHT22;5101;49.038;8.710;2022-07-23T04:52:22;22.20;94.00
10123;DHT22;5101;49.038;8.710;2022-07-23T04:54:47;22.20;94.20
10123;DHT22;5101;49.038;8.710;2022-07-23T04:57:13;22.20;94.30
10123;DHT22;5101;49.038;8.710;2022-07-23T04:59:38;22.20;94.40
10123;DHT22;5101;49.038;8.710;2022-07-23T05:02:04;22.20;94.60
10123;DHT22;5101;49.038;8.710;2022-07-23T05:04:29;22.20;94.50
10123;DHT22;5101;49.038;8.710;2022-07-23T05:06:56;22.30;94.40
10123;DHT22;5101;49.038;8.710;2022-07-23T05:09:22;22.20;94.50
10123;DHT22;5101;49.038;8.710;2022-07-23T05:11:47;22.30;94.60
10123;DHT22;5101;49.038;8.710;2022-07-23T05:14:13;22.30;94.40
10123;DHT22;5101;49.038;8.710;2022-07-23T05:16:39;22.30;94.30
10123;DHT22;5101;49.038;8.710;2022-07-23T05:19:04;22.30;94.30
10123;DHT22;5101;49.038;8.710;2022-07-23T05:21:30;22.30;94.20
10123;DHT22;5101;49.038;8.710;2022-07-23T05:23:55;22.30;94.10
10123;DHT22;5101;49.038;8.710;2022-07-23T05:26:21;22.20;94.20
10123;DHT22;5101;49.038;8.710;2022-07-23T05:28:46;22.20;94.30
10123;DHT22;5101;49.038;8.710;2022-07-23T05:31:12;22.20;94.20
10123;DHT22;5101;49.038;8.710;2022-07-23T05:33:37;22.20;94.20
10123;DHT22;5101;49.038;8.710;2022-07-23T05:36:03;22.20;94.20
10123;DHT22;5101;49.038;8.710;2022-07-23T05:38:30;22.20;93.90
10123;DHT22;5101;49.038;8.710;2022-07-23T05:40:56;22.20;93.70
10123;DHT22;5101;49.038;8.710;2022-07-23T05:43:22;22.20;93.60
10123;DHT22;5101;49.038;8.710;2022-07-23T05:45:47;22.30;93.40
10123;DHT22;5101;49.038;8.710;2022-07-23T05:48:13;22.30;93.30
10123;DHT22;5101;49.038;8.710;2022-07-23T05:50:38;22.30;93.20
10123;DHT22;5101;49.038;8.710;2022-07-23T05:53:04;22.30;93.30
10123;DHT22;5101;49.038;8.710;2022-07-23T05:55:29;22.40;93.20
10123;DHT22;5101;49.038;8.710;2022-07-23T05:57:57;22.40;93.40
10123;DHT22;5101;49.038;8.710;2022-07-23T06:00:22;22.40;93.40
10123;DHT22;5101;49.038;8.710;2022-07-23T06:02:48;22.50;93.50
10123;DHT22;5101;49.038;8.710;2022-07-23T06:05:13;22.50;93.20
10123;DHT22;5101;49.038;8.710;2022-07-23T06:07:39;22.50;93.10
10123;DHT22;5101;49.038;8.710;2022-07-23T06:10:05;22.50;92.80
10123;DHT22;5101;49.038;8.710;2022-07-23T06:12:31;22.60;92.80
10123;DHT22;5101;49.038;8.710;2022-07-23T06:14:56;22.60;92.80
10123;DHT22;5101;49.038;8.710;2022-07-23T06:17:22;22.70;93.00
10123;DHT22;5101;49.038;8.710;2022-07-23T06:19:47;22.70;93.10
10123;DHT22;5101;49.038;8.710;2022-07-23T06:22:13;22.70;93.20
10123;DHT22;5101;49.038;8.710;2022-07-23T06:24:38;22.80;93.30
10123;DHT22;5101;49.038;8.710;2022-07-23T06:27:04;22.80;93.50
10123;DHT22;5101;49.038;8.710;2022-07-23T06:29:30;22.80;94.40
10123;DHT22;5101;49.038;8.710;2022-07-23T06:31:55;22.80;95.60
10123;DHT22;5101;49.038;8.710;2022-07-23T06:34:21;22.80;96.50
10123;DHT22;5101;49.038;8.710;2022-07-23T06:36:46;22.80;97.30
10123;DHT22;5101;49.038;8.710;2022-07-23T06:39:12;22.80;98.00
10123;DHT22;5101;49.038;8.710;2022-07-23T06:41:37;22.80;98.80
10123;DHT22;5101;49.038;8.710;2022-07-23T06:44:03;22.80;99.40
10123;DHT22;5101;49.038;8.710;2022-07-23T06:46:28;22.80;99.70
10123;DHT22;5101;49.038;8.710;2022-07-23T06:48:54;22.70;99.90
10123;DHT22;5101;49.038;8.710;2022-07-23T06:51:19;22.70;99.90
10123;DHT22;5101;49.038;8.710;2022-07-23T06:53:45;22.60;99.90
10123;DHT22;5101;49.038;8.710;2022-07-23T06:56:10;22.60;99.90
10123;DHT22;5101;49.038;8.710;2022-07-23T06:58:36;22.40;99.90
10123;DHT22;5101;49.038;8.710;2022-07-23T07:01:02;22.30;99.90
10123;DHT22;5101;49.038;8.710;2022-07-23T07:03:27;22.30;99.60
10123;DHT22;5101;49.038;8.710;2022-07-23T07:05:53;22.40;99.70
10123;DHT22;5101;49.038;8.710;2022-07-23T07:08:18;22.40;99.80
10123;DHT22;5101;49.038;8.710;2022-07-23T07:10:44;22.40;99.90
10123;DHT22;5101;49.038;8.710;2022-07-23T07:13:09;22.40;99.90
10123;DHT22;5101;49.038;8.710;2022-07-23T07:15:35;22.40;99.90
10123;DHT22;5101;49.038;8.710;2022-07-23T07:18:00;22.50;99.90
10123;DHT22;5101;49.038;8.710;2022-07-23T07:20:26;22.50;99.90
10123;DHT22;5101;49.038;8.710;2022-07-23T07:22:51;22.50;99.90
10123;DHT22;5101;49.038;8.710;2022-07-23T07:25:17;22.50;99.90
10123;DHT22;5101;49.038;8.710;2022-07-23T07:27:43;22.50;99.90
10123;DHT22;5101;49.038;8.710;2022-07-23T07:30:10;22.60;99.90
10123;DHT22;5101;49.038;8.710;2022-07-23T07:32:35;22.60;99.90
10123;DHT22;5101;49.038;8.710;2022-07-23T07:35:03;22.60;99.90
10123;DHT22;5101;49.038;8.710;2022-07-23T07:37:28;22.60;99.90
10123;DHT22;5101;49.038;8.710;2022-07-23T07:39:54;22.70;99.90
10123;DHT22;5101;49.038;8.710;2022-07-23T07:42:20;22.80;99.90
10123;DHT22;5101;49.038;8.710;2022-07-23T07:44:45;22.90;99.70
10123;DHT22;5101;49.038;8.710;2022-07-23T07:47:11;22.90;99.60
10123;DHT22;5101;49.038;8.710;2022-07-23T07:49:36;23.00;98.90
10123;DHT22;5101;49.038;8.710;2022-07-23T07:52:02;23.10;99.20
10123;DHT22;5101;49.038;8.710;2022-07-23T07:54:28;23.10;99.20
10123;DHT22;5101;49.038;8.710;2022-07-23T07:56:54;23.20;99.30
10123;DHT22;5101;49.038;8.710;2022-07-23T07:59:19;23.20;99.50
10123;DHT22;5101;49.038;8.710;2022-07-23T08:01:45;23.30;99.40
10123;DHT22;5101;49.038;8.710;2022-07-23T08:04:10;23.30;99.20
10123;DHT22;5101;49.038;8.710;2022-07-23T08:06:36;23.50;98.90
10123;DHT22;5101;49.038;8.710;2022-07-23T08:09:01;23.70;98.70
10123;DHT22;5101;49.038;8.710;2022-07-23T08:11:27;23.80;98.40
10123;DHT22;5101;49.038;8.710;2022-07-23T08:13:52;24.10;97.70
10123;DHT22;5101;49.038;8.710;2022-07-23T08:16:18;24.40;96.50
10123;DHT22;5101;49.038;8.710;2022-07-23T08:18:43;24.70;96.00
10123;DHT22;5101;49.038;8.710;2022-07-23T08:21:09;25.00;95.70
10123;DHT22;5101;49.038;8.710;2022-07-23T08:23:34;25.20;94.20
10123;DHT22;5101;49.038;8.710;2022-07-23T08:26:00;25.40;93.00
10123;DHT22;5101;49.038;8.710;2022-07-23T08:28:26;25.60;91.90
10123;DHT22;5101;49.038;8.710;2022-07-23T08:30:52;25.80;91.30
10123;DHT22;5101;49.038;8.710;2022-07-23T08:33:18;25.90;90.90
10123;DHT22;5101;49.038;8.710;2022-07-23T08:35:46;26.10;91.10
10123;DHT22;5101;49.038;8.710;2022-07-23T08:38:14;26.30;91.30
10123;DHT22;5101;49.038;8.710;2022-07-23T08:40:42;26.50;91.00
10123;DHT22;5101;49.038;8.710;2022-07-23T08:43:11;26.60;90.80
10123;DHT22;5101;49.038;8.710;2022-07-23T08:45:42;27.00;90.50
10123;DHT22;5101;49.038;8.710;2022-07-23T08:48:11;27.30;88.20
10123;DHT22;5101;49.038;8.710;2022-07-23T08:50:37;27.60;86.50
10123;DHT22;5101;49.038;8.710;2022-07-23T08:53:06;28.00;83.50
10123;DHT22;5101;49.038;8.710;2022-07-23T08:55:31;28.30;82.00
10123;DHT22;5101;49.038;8.710;2022-07-23T08:57:57;28.50;81.40
10123;DHT22;5101;49.038;8.710;2022-07-23T09:00:23;28.80;80.30
10123;DHT22;5101;49.038;8.710;2022-07-23T09:02:48;28.90;78.90
10123;DHT22;5101;49.038;8.710;2022-07-23T09:05:15;29.00;77.20
10123;DHT22;5101;49.038;8.710;2022-07-23T09:08:10;29.20;76.90
10123;DHT22;5101;49.038;8.710;2022-07-23T09:10:56;29.50;76.40
10123;DHT22;5101;49.038;8.710;2022-07-23T09:15:58;29.60;71.20
10123;DHT22;5101;49.038;8.710;2022-07-23T09:19:07;29.70;70.40
10123;DHT22;5101;49.038;8.710;2022-07-23T09:21:26;29.70;67.80
10123;DHT22;5101;49.038;8.710;2022-07-23T09:24:13;29.80;67.50
10123;DHT22;5101;49.038;8.710;2022-07-23T09:26:44;29.80;65.70
10123;DHT22;5101;49.038;8.710;2022-07-23T09:29:17;29.80;65.50
10123;DHT22;5101;49.038;8.710;2022-07-23T09:31:50;30.00;64.40
10123;DHT22;5101;49.038;8.710;2022-07-23T09:34:23;30.10;64.40
10123;DHT22;5101;49.038;8.710;2022-07-23T09:36:51;30.20;65.00
10123;DHT22;5101;49.038;8.710;2022-07-23T09:39:33;30.20;65.00
10123;DHT22;5101;49.038;8.710;2022-07-23T09:44:47;30.10;64.80
10123;DHT22;5101;49.038;8.710;2022-07-23T09:47:13;30.10;65.60
10123;DHT22;5101;49.038;8.710;2022-07-23T09:49:39;30.20;65.70
10123;DHT22;5101;49.038;8.710;2022-07-23T09:52:05;30.30;64.90
10123;DHT22;5101;49.038;8.710;2022-07-23T09:54:37;30.40;63.00
10123;DHT22;5101;49.038;8.710;2022-07-23T09:57:12;30.30;60.30
10123;DHT22;5101;49.038;8.710;2022-07-23T09:59:43;30.40;61.00
10123;DHT22;5101;49.038;8.710;2022-07-23T10:02:11;30.20;60.50
10123;DHT22;5101;49.038;8.710;2022-07-23T10:04:40;30.10;60.20
10123;DHT22;5101;49.038;8.710;2022-07-23T10:07:08;30.20;60.20
10123;DHT22;5101;49.038;8.710;2022-07-23T10:09:37;30.10;60.20
10123;DHT22;5101;49.038;8.710;2022-07-23T10:12:08;30.20;60.00
10123;DHT22;5101;49.038;8.710;2022-07-23T10:14:35;30.20;60.20
10123;DHT22;5101;49.038;8.710;2022-07-23T10:17:03;30.20;60.80
10123;DHT22;5101;49.038;8.710;2022-07-23T10:19:30;30.00;60.60
10123;DHT22;5101;49.038;8.710;2022-07-23T10:22:00;30.00;60.90
10123;DHT22;5101;49.038;8.710;2022-07-23T10:24:40;30.00;61.40
10123;DHT22;5101;49.038;8.710;2022-07-23T10:37:43;29.80;60.00
10123;DHT22;5101;49.038;8.710;2022-07-23T10:42:39;29.60;62.50
10123;DHT22;5101;49.038;8.710;2022-07-23T10:47:52;29.60;62.70
10123;DHT22;5101;49.038;8.710;2022-07-23T10:50:25;29.60;63.40
10123;DHT22;5101;49.038;8.710;2022-07-23T10:57:57;29.80;63.80
10123;DHT22;5101;49.038;8.710;2022-07-23T11:00:28;29.90;63.70
10123;DHT22;5101;49.038;8.710;2022-07-23T11:03:02;30.00;63.90
10123;DHT22;5101;49.038;8.710;2022-07-23T11:05:42;29.90;63.50
10123;DHT22;5101;49.038;8.710;2022-07-23T11:10:45;30.00;62.10
10123;DHT22;5101;49.038;8.710;2022-07-23T11:13:37;30.10;61.40
10123;DHT22;5101;49.038;8.710;2022-07-23T11:16:23;30.00;61.20
10123;DHT22;5101;49.038;8.710;2022-07-23T11:18:56;30.10;61.20
10123;DHT22;5101;49.038;8.710;2022-07-23T11:34:40;30.30;57.20
10123;DHT22;5101;49.038;8.710;2022-07-23T11:37:09;30.40;58.10
10123;DHT22;5101;49.038;8.710;2022-07-23T11:39:35;30.50;57.20
10123;DHT22;5101;49.038;8.710;2022-07-23T11:42:02;30.50;55.80
10123;DHT22;5101;49.038;8.710;2022-07-23T11:44:38;30.50;55.60
10123;DHT22;5101;49.038;8.710;2022-07-23T11:47:07;30.60;53.80
10123;DHT22;5101;49.038;8.710;2022-07-23T11:49:33;30.70;53.50
10123;DHT22;5101;49.038;8.710;2022-07-23T11:52:12;30.70;52.30
10123;DHT22;5101;49.038;8.710;2022-07-23T11:54:57;30.70;49.90
10123;DHT22;5101;49.038;8.710;2022-07-23T11:57:29;30.70;48.40
10123;DHT22;5101;49.038;8.710;2022-07-23T11:59:57;30.60;48.30
10123;DHT22;5101;49.038;8.710;2022-07-23T12:02:24;30.60;48.30
10123;DHT22;5101;49.038;8.710;2022-07-23T12:04:52;30.60;48.10
10123;DHT22;5101;49.038;8.710;2022-07-23T12:07:34;30.70;48.40
10123;DHT22;5101;49.038;8.710;2022-07-23T12:12:37;30.70;47.00
10123;DHT22;5101;49.038;8.710;2022-07-23T12:15:05;30.90;46.90
10123;DHT22;5101;49.038;8.710;2022-07-23T12:17:35;30.90;47.70
10123;DHT22;5101;49.038;8.710;2022-07-23T12:20:03;30.70;48.00
10123;DHT22;5101;49.038;8.710;2022-07-23T12:22:38;30.50;49.20
10123;DHT22;5101;49.038;8.710;2022-07-23T12:25:09;30.60;50.80
10123;DHT22;5101;49.038;8.710;2022-07-23T12:27:35;30.70;50.80
10123;DHT22;5101;49.038;8.710;2022-07-23T12:30:22;30.80;50.10
10123;DHT22;5101;49.038;8.710;2022-07-23T12:32:50;30.90;49.80
10123;DHT22;5101;49.038;8.710;2022-07-23T12:35:16;31.00;50.10
10123;DHT22;5101;49.038;8.710;2022-07-23T12:37:44;31.00;50.30
10123;DHT22;5101;49.038;8.710;2022-07-23T12:40:34;31.00;50.10
10123;DHT22;5101;49.038;8.710;2022-07-23T12:43:07;31.00;49.50
10123;DHT22;5101;49.038;8.710;2022-07-23T12:45:54;30.90;48.90
10123;DHT22;5101;49.038;8.710;2022-07-23T12:48:27;31.00;49.20
10123;DHT22;5101;49.038;8.710;2022-07-23T12:50:55;31.00;49.60
10123;DHT22;5101;49.038;8.710;2022-07-23T12:56:00;30.80;49.60
10123;DHT22;5101;49.038;8.710;2022-07-23T12:58:26;30.90;50.10
10123;DHT22;5101;49.038;8.710;2022-07-23T13:00:59;31.10;50.10
10123;DHT22;5101;49.038;8.710;2022-07-23T13:03:29;31.10;48.80
10123;DHT22;5101;49.038;8.710;2022-07-23T13:05:56;31.10;48.60
10123;DHT22;5101;49.038;8.710;2022-07-23T13:08:23;31.10;48.50
10123;DHT22;5101;49.038;8.710;2022-07-23T13:10:48;31.20;47.70
10123;DHT22;5101;49.038;8.710;2022-07-23T13:13:16;31.20;47.20
10123;DHT22;5101;49.038;8.710;2022-07-23T13:15:43;31.20;47.80
10123;DHT22;5101;49.038;8.710;2022-07-23T13:18:09;31.30;47.70
10123;DHT22;5101;49.038;8.710;2022-07-23T13:20:34;31.30;47.70
10123;DHT22;5101;49.038;8.710;2022-07-23T13:23:00;31.40;47.80
10123;DHT22;5101;49.038;8.710;2022-07-23T13:25:26;31.30;47.20
10123;DHT22;5101;49.038;8.710;2022-07-23T13:27:52;31.30;47.60
10123;DHT22;5101;49.038;8.710;2022-07-23T13:30:17;31.40;47.90
10123;DHT22;5101;49.038;8.710;2022-07-23T13:32:43;31.30;47.00
10123;DHT22;5101;49.038;8.710;2022-07-23T13:35:09;31.40;47.00
10123;DHT22;5101;49.038;8.710;2022-07-23T13:37:35;31.40;46.80
10123;DHT22;5101;49.038;8.710;2022-07-23T13:40:01;31.40;46.80
10123;DHT22;5101;49.038;8.710;2022-07-23T13:42:27;31.50;46.80
10123;DHT22;5101;49.038;8.710;2022-07-23T13:44:52;31.30;46.70
10123;DHT22;5101;49.038;8.710;2022-07-23T13:47:18;31.20;46.40
10123;DHT22;5101;49.038;8.710;2022-07-23T13:49:43;31.20;46.10
10123;DHT22;5101;49.038;8.710;2022-07-23T13:52:09;31.20;46.10
10123;DHT22;5101;49.038;8.710;2022-07-23T13:54:35;31.30;46.20
10123;DHT22;5101;49.038;8.710;2022-07-23T13:57:01;31.30;46.10
10123;DHT22;5101;49.038;8.710;2022-07-23T13:59:26;31.40;45.30
10123;DHT22;5101;49.038;8.710;2022-07-23T14:01:52;31.40;44.70
10123;DHT22;5101;49.038;8.710;2022-07-23T14:04:18;31.30;44.90
10123;DHT22;5101;49.038;8.710;2022-07-23T14:06:44;31.30;45.50
10123;DHT22;5101;49.038;8.710;2022-07-23T14:09:09;31.10;45.50
10123;DHT22;5101;49.038;8.710;2022-07-23T14:11:35;31.00;45.70
10123;DHT22;5101;49.038;8.710;2022-07-23T14:14:00;30.90;46.80
10123;DHT22;5101;49.038;8.710;2022-07-23T14:16:26;30.80;46.20
10123;DHT22;5101;49.038;8.710;2022-07-23T14:18:52;30.80;46.30
10123;DHT22;5101;49.038;8.710;2022-07-23T14:21:17;30.80;46.40
10123;DHT22;5101;49.038;8.710;2022-07-23T14:23:43;30.80;46.50
10123;DHT22;5101;49.038;8.710;2022-07-23T14:26:08;30.70;46.90
10123;DHT22;5101;49.038;8.710;2022-07-23T14:28:34;30.70;47.20
10123;DHT22;5101;49.038;8.710;2022-07-23T14:30:59;30.80;47.90
10123;DHT22;5101;49.038;8.710;2022-07-23T14:33:25;30.80;46.70
10123;DHT22;5101;49.038;8.710;2022-07-23T14:35:51;30.80;46.30
10123;DHT22;5101;49.038;8.710;2022-07-23T14:38:17;30.80;46.30
10123;DHT22;5101;49.038;8.710;2022-07-23T14:40:42;30.90;46.40
10123;DHT22;5101;49.038;8.710;2022-07-23T14:43:08;31.00;46.50
10123;DHT22;5101;49.038;8.710;2022-07-23T14:45:34;30.90;46.10
10123;DHT22;5101;49.038;8.710;2022-07-23T14:47:59;30.90;46.00
10123;DHT22;5101;49.038;8.710;2022-07-23T14:50:27;31.00;46.40
10123;DHT22;5101;49.038;8.710;2022-07-23T14:52:53;31.00;46.50
10123;DHT22;5101;49.038;8.710;2022-07-23T14:55:18;31.00;46.00
10123;DHT22;5101;49.038;8.710;2022-07-23T14:57:44;30.90;45.50
10123;DHT22;5101;49.038;8.710;2022-07-23T15:00:10;30.90;45.30
10123;DHT22;5101;49.038;8.710;2022-07-23T15:02:36;30.90;45.50
10123;DHT22;5101;49.038;8.710;2022-07-23T15:05:01;31.00;46.10
10123;DHT22;5101;49.038;8.710;2022-07-23T15:07:28;31.10;46.10
10123;DHT22;5101;49.038;8.710;2022-07-23T15:09:54;31.10;45.60
10123;DHT22;5101;49.038;8.710;2022-07-23T15:12:20;31.00;45.40
10123;DHT22;5101;49.038;8.710;2022-07-23T15:14:45;31.00;46.10
10123;DHT22;5101;49.038;8.710;2022-07-23T15:17:10;30.90;46.40
10123;DHT22;5101;49.038;8.710;2022-07-23T15:19:36;30.90;46.20
10123;DHT22;5101;49.038;8.710;2022-07-23T15:22:02;30.80;46.00
10123;DHT22;5101;49.038;8.710;2022-07-23T15:24:27;30.80;46.30
10123;DHT22;5101;49.038;8.710;2022-07-23T15:26:53;30.80;46.60
10123;DHT22;5101;49.038;8.710;2022-07-23T15:29:18;30.80;46.80
10123;DHT22;5101;49.038;8.710;2022-07-23T15:31:44;30.90;46.80
10123;DHT22;5101;49.038;8.710;2022-07-23T15:34:09;30.80;46.30
10123;DHT22;5101;49.038;8.710;2022-07-23T15:36:35;30.80;46.40
10123;DHT22;5101;49.038;8.710;2022-07-23T15:39:00;30.80;46.30
10123;DHT22;5101;49.038;8.710;2022-07-23T15:41:26;30.80;46.30
10123;DHT22;5101;49.038;8.710;2022-07-23T15:43:51;30.80;46.30
10123;DHT22;5101;49.038;8.710;2022-07-23T15:46:17;30.70;46.00
10123;DHT22;5101;49.038;8.710;2022-07-23T15:48:44;30.70;45.30
10123;DHT22;5101;49.038;8.710;2022-07-23T15:51:11;30.70;45.30
10123;DHT22;5101;49.038;8.710;2022-07-23T15:53:37;30.60;46.20
10123;DHT22;5101;49.038;8.710;2022-07-23T15:56:05;30.40;46.60
10123;DHT22;5101;49.038;8.710;2022-07-23T15:58:31;30.30;48.00
10123;DHT22;5101;49.038;8.710;2022-07-23T16:00:56;30.20;49.00
10123;DHT22;5101;49.038;8.710;2022-07-23T16:03:22;30.20;49.80
10123;DHT22;5101;49.038;8.710;2022-07-23T16:05:48;30.00;50.30
10123;DHT22;5101;49.038;8.710;2022-07-23T16:08:13;30.00;50.90
10123;DHT22;5101;49.038;8.710;2022-07-23T16:10:39;29.90;51.70
10123;DHT22;5101;49.038;8.710;2022-07-23T16:13:05;29.90;52.20
10123;DHT22;5101;49.038;8.710;2022-07-23T16:15:30;29.80;52.80
10123;DHT22;5101;49.038;8.710;2022-07-23T16:17:56;29.80;53.20
10123;DHT22;5101;49.038;8.710;2022-07-23T16:20:22;29.80;53.30
10123;DHT22;5101;49.038;8.710;2022-07-23T16:22:48;29.70;53.30
10123;DHT22;5101;49.038;8.710;2022-07-23T16:25:13;29.70;53.40
10123;DHT22;5101;49.038;8.710;2022-07-23T16:27:40;29.80;53.90
10123;DHT22;5101;49.038;8.710;2022-07-23T16:30:08;29.70;53.90